Time;durP1;ratioP1;P1;durP2;ratioP2;P2;SDS_P1;SDS_P2;PMS_P1;PMS_P2;Temp;Humidity;BMP_temperature;BMP_pressure;BME280_temperature;BME280_humidity;BME280_pressure;Samples;Min_cycle;Max_cycle;Signal;HPM_P1;HPM_P2
2023/06/19 00:05:06;;;;;;;5.20;3.20;;;;;;;;;;20996329;28;20402;-68
2023/06/19 00:15:09;;;;;;;6.32;3.03;;;;;;;;;;20994398;28;20045;-68
2023/06/19 00:25:10;;;;;;;5.43;2.60;;;;;;;;;;20994141;28;20055;-68
2023/06/19 00:35:11;;;;;;;4.57;3.08;;;;;;;;;;20993591;28;20088;-68
2023/06/19 00:45:12;;;;;;;3.53;2.85;;;;;;;;;;20994905;28;20044;-68
2023/06/19 00:55:15;;;;;;;4.93;2.85;;;;;;;;;;20994499;28;20048;-67
2023/06/19 01:05:17;;;;;;;5.10;3.28;;;;;;;;;;21008465;28;20485;-67
2023/06/19 01:15:18;;;;;;;6.43;2.83;;;;;;;;;;21007663;28;20044;-67
2023/06/19 01:25:19;;;;;;;6.60;3.47;;;;;;;;;;21007198;28;20494;-67
2023/06/19 01:35:22;;;;;;;7.72;3.72;;;;;;;;;;21004437;28;20052;-67
2023/06/19 01:45:23;;;;;;;8.57;3.83;;;;;;;;;;21005229;28;20072;-67
2023/06/19 01:55:24;;;;;;;16.65;5.80;;;;;;;;;;21004468;28;20044;-67
2023/06/19 02:05:26;;;;;;;7.18;4.22;;;;;;;;;;21002310;28;20056;-67
2023/06/19 02:15:27;;;;;;;11.10;4.70;;;;;;;;;;21002742;28;20045;-67
2023/06/19 02:25:28;;;;;;;8.25;4.63;;;;;;;;;;21000587;28;20052;-67
2023/06/19 02:35:29;;;;;;;8.80;4.90;;;;;;;;;;20999788;28;20056;-68
2023/06/19 02:45:30;;;;;;;6.82;4.65;;;;;;;;;;20999139;28;20074;-67
2023/06/19 02:55:31;;;;;;;5.75;4.32;;;;;;;;;;20998220;28;20094;-67
2023/06/19 03:05:32;;;;;;;7.10;4.40;;;;;;;;;;20998938;28;20570;-67
2023/06/19 03:15:33;;;;;;;6.95;4.85;;;;;;;;;;20997244;28;20043;-67
2023/06/19 03:25:34;;;;;;;6.25;3.95;;;;;;;;;;20997439;28;20037;-67
2023/06/19 03:35:36;;;;;;;6.75;4.90;;;;;;;;;;20996385;28;20418;-67
2023/06/19 03:45:37;;;;;;;5.90;4.20;;;;;;;;;;20997221;28;20120;-66
2023/06/19 03:55:38;;;;;;;7.55;4.60;;;;;;;;;;20996835;28;20078;-67
2023/06/19 04:05:41;;;;;;;10.68;5.38;;;;;;;;;;20996492;28;20119;-67
2023/06/19 04:15:44;;;;;;;6.88;4.68;;;;;;;;;;20995763;28;20530;-67
2023/06/19 04:25:45;;;;;;;6.80;4.05;;;;;;;;;;20995691;28;20421;-66
2023/06/19 04:35:48;;;;;;;6.35;4.43;;;;;;;;;;21004339;28;20466;-67
2023/06/19 04:45:49;;;;;;;7.38;4.50;;;;;;;;;;21009753;28;20051;-66
2023/06/19 04:55:51;;;;;;;6.30;4.30;;;;;;;;;;21009171;28;20044;-67
2023/06/19 05:05:52;;;;;;;10.93;4.22;;;;;;;;;;21008400;28;20132;-67
2023/06/19 05:15:53;;;;;;;7.55;3.72;;;;;;;;;;21007500;28;20420;-66
2023/06/19 05:25:54;;;;;;;7.88;4.43;;;;;;;;;;21005736;28;20066;-67
2023/06/19 05:35:55;;;;;;;5.80;4.80;;;;;;;;;;21006165;28;20088;-67
2023/06/19 05:45:58;;;;;;;10.40;4.78;;;;;;;;;;21005012;28;20068;-67
2023/06/19 05:55:59;;;;;;;8.57;4.97;;;;;;;;;;21004565;28;20491;-67
2023/06/19 06:06:02;;;;;;;7.15;4.70;;;;;;;;;;21003805;28;20040;-67
2023/06/19 06:16:04;;;;;;;9.98;4.78;;;;;;;;;;21002611;28;20048;-67
2023/06/19 06:26:05;;;;;;;15.57;5.85;;;;;;;;;;21002138;28;20102;-66
2023/06/19 06:36:06;;;;;;;12.07;5.20;;;;;;;;;;21000273;28;20056;-66
2023/06/19 06:46:07;;;;;;;7.45;5.20;;;;;;;;;;20999997;28;20036;-67
2023/06/19 06:56:08;;;;;;;10.48;5.43;;;;;;;;;;20997737;28;20048;-64
2023/06/19 07:06:09;;;;;;;8.20;5.50;;;;;;;;;;20997872;28;20051;-64
2023/06/19 07:16:11;;;;;;;11.13;5.88;;;;;;;;;;20997742;28;20119;-64
2023/06/19 07:26:13;;;;;;;10.95;5.13;;;;;;;;;;20997846;28;20049;-64
2023/06/19 07:36:15;;;;;;;13.88;6.68;;;;;;;;;;20997530;28;20048;-64
2023/06/19 07:46:17;;;;;;;12.02;6.80;;;;;;;;;;20995303;28;20049;-64
2023/06/19 07:56:18;;;;;;;9.80;6.32;;;;;;;;;;20995204;28;20541;-64
2023/06/19 08:06:19;;;;;;;8.98;5.80;;;;;;;;;;21000020;28;20544;-64
2023/06/19 08:16:20;;;;;;;9.45;5.97;;;;;;;;;;21009542;28;20051;-64
2023/06/19 08:26:21;;;;;;;9.85;5.20;;;;;;;;;;21010286;28;20045;-66
2023/06/19 08:36:22;;;;;;;11.70;5.45;;;;;;;;;;21009360;28;20056;-66
2023/06/19 08:46:24;;;;;;;8.85;5.90;;;;;;;;;;21009679;28;20043;-65
2023/06/19 08:56:25;;;;;;;7.95;5.47;;;;;;;;;;21008704;28;20049;-63
2023/06/19 09:06:26;;;;;;;11.70;5.85;;;;;;;;;;21007244;28;20048;-65
2023/06/19 09:16:38;;;;;;;7.72;5.82;;;;;;;;;;21006530;28;20101;-66
2023/06/19 09:26:39;;;;;;;11.77;5.82;;;;;;;;;;21006858;28;20044;-66
2023/06/19 09:36:41;;;;;;;12.15;6.38;;;;;;;;;;21005742;28;20048;-66
2023/06/19 09:46:45;;;;;;;8.48;5.68;;;;;;;;;;21005269;28;20555;-65
2023/06/19 09:56:50;;;;;;;11.95;5.93;;;;;;;;;;21004496;28;20047;-65
2023/06/19 10:06:52;;;;;;;7.63;5.10;;;;;;;;;;21004423;28;20478;-65
2023/06/19 10:16:53;;;;;;;8.15;4.70;;;;;;;;;;21002899;28;20040;-65
2023/06/19 10:27:01;;;;;;;6.15;4.35;;;;;;;;;;21002062;28;20473;-65
2023/06/19 10:37:02;;;;;;;9.05;5.22;;;;;;;;;;21000124;28;20247;-65
2023/06/19 10:47:04;;;;;;;7.93;4.72;;;;;;;;;;21000039;28;20047;-65
2023/06/19 10:57:05;;;;;;;5.70;4.20;;;;;;;;;;20999292;28;20098;-66
2023/06/19 11:07:08;;;;;;;6.57;5.05;;;;;;;;;;20998886;28;20076;-66
2023/06/19 11:17:09;;;;;;;6.78;4.60;;;;;;;;;;20997651;28;20492;-66
2023/06/19 11:27:17;;;;;;;7.45;4.85;;;;;;;;;;20997673;28;20576;-66
2023/06/19 11:37:20;;;;;;;7.30;4.78;;;;;;;;;;20997963;28;20052;-65
2023/06/19 11:47:21;;;;;;;7.35;4.90;;;;;;;;;;20994630;28;20128;-66
2023/06/19 11:57:23;;;;;;;7.50;5.32;;;;;;;;;;20995434;28;20044;-65
2023/06/19 12:07:25;;;;;;;8.32;5.43;;;;;;;;;;20994642;28;20056;-65
2023/06/19 12:17:26;;;;;;;6.45;4.43;;;;;;;;;;20994395;28;20401;-66
2023/06/19 12:27:27;;;;;;;7.97;5.20;;;;;;;;;;20992748;28;20045;-66
2023/06/19 12:37:28;;;;;;;9.07;4.05;;;;;;;;;;20992065;28;20052;-65
2023/06/19 12:47:30;;;;;;;5.72;4.00;;;;;;;;;;20993147;28;20051;-64
2023/06/19 12:57:31;;;;;;;10.07;6.55;;;;;;;;;;21003618;28;20055;-63
2023/06/19 13:07:32;;;;;;;8.68;5.45;;;;;;;;;;21007743;28;20098;-64
2023/06/19 13:17:33;;;;;;;7.50;4.75;;;;;;;;;;21007404;28;20075;-64
2023/06/19 13:27:34;;;;;;;8.48;4.30;;;;;;;;;;21005197;28;20174;-64
2023/06/19 13:37:36;;;;;;;6.63;4.13;;;;;;;;;;21006757;28;20048;-65
2023/06/19 13:47:37;;;;;;;5.57;3.45;;;;;;;;;;21005627;28;20045;-66
2023/06/19 13:57:40;;;;;;;8.27;3.97;;;;;;;;;;21002643;28;20052;-65
2023/06/19 14:07:44;;;;;;;12.25;7.55;;;;;;;;;;21002711;28;20080;-66
2023/06/19 14:17:45;;;;;;;7.18;3.78;;;;;;;;;;21002598;28;20044;-66
2023/06/19 14:27:46;;;;;;;4.32;3.28;;;;;;;;;;21002011;28;20044;-66
2023/06/19 14:37:47;;;;;;;4.68;3.47;;;;;;;;;;20999453;28;20094;-67
2023/06/19 14:47:49;;;;;;;6.38;4.10;;;;;;;;;;20999941;28;20044;-66
2023/06/19 14:57:50;;;;;;;6.43;4.18;;;;;;;;;;20998542;28;20040;-67
2023/06/19 15:07:51;;;;;;;5.43;3.65;;;;;;;;;;20997371;28;20071;-65
2023/06/19 15:17:53;;;;;;;7.57;3.88;;;;;;;;;;20996951;28;20128;-67
2023/06/19 15:27:54;;;;;;;6.15;4.18;;;;;;;;;;20996476;28;20101;-67
2023/06/19 15:37:58;;;;;;;6.78;4.72;;;;;;;;;;20997651;28;20458;-67
2023/06/19 15:48:00;;;;;;;11.13;4.73;;;;;;;;;;20994913;28;20078;-67
2023/06/19 15:58:01;;;;;;;6.60;3.53;;;;;;;;;;20994537;28;20053;-63
2023/06/19 16:08:02;;;;;;;7.18;4.20;;;;;;;;;;20994224;28;20044;-66
2023/06/19 16:18:03;;;;;;;4.55;3.28;;;;;;;;;;20993262;28;20060;-67
2023/06/19 16:28:05;;;;;;;4.82;3.20;;;;;;;;;;21000090;28;20051;-65
2023/06/19 16:38:06;;;;;;;5.28;3.22;;;;;;;;;;21008531;28;20106;-65
2023/06/19 16:48:07;;;;;;;10.30;5.28;;;;;;;;;;20998962;28;20478;-75
2023/06/19 16:58:08;;;;;;;17.33;8.80;;;;;;;;;;20980033;28;20406;-69
2023/06/19 17:08:09;;;;;;;12.43;3.80;;;;;;;;;;20995625;28;20049;-71
2023/06/19 17:18:10;;;;;;;36.15;17.52;;;;;;;;;;21005987;28;20548;-74
2023/06/19 17:28:12;;;;;;;5.45;2.90;;;;;;;;;;21005848;28;20052;-69
2023/06/19 17:38:13;;;;;;;4.63;2.90;;;;;;;;;;20941491;28;20061;-71
2023/06/19 17:48:14;;;;;;;8.82;6.60;;;;;;;;;;20999451;28;20486;-71
2023/06/19 17:58:15;;;;;;;9.13;3.78;;;;;;;;;;20986980;28;20041;-74
2023/06/19 18:08:16;;;;;;;5.55;3.08;;;;;;;;;;20982650;28;20150;-71
2023/06/19 18:18:17;;;;;;;4.78;3.10;;;;;;;;;;20999642;28;20487;-67
2023/06/19 18:28:18;;;;;;;8.27;4.20;;;;;;;;;;20974698;28;20054;-68
2023/06/19 18:38:19;;;;;;;11.68;4.45;;;;;;;;;;20990861;28;20055;-63
2023/06/19 18:48:21;;;;;;;10.23;3.65;;;;;;;;;;20996470;28;20086;-72
2023/06/19 18:58:22;;;;;;;6.03;3.20;;;;;;;;;;20997530;28;20097;-70
2023/06/19 19:08:23;;;;;;;5.68;3.40;;;;;;;;;;20997705;28;20489;-72
2023/06/19 19:18:27;;;;;;;8.57;3.80;;;;;;;;;;20975096;28;20044;-70
2023/06/19 19:28:28;;;;;;;15.20;4.50;;;;;;;;;;20972987;28;20040;-72
2023/06/19 19:38:29;;;;;;;7.85;3.22;;;;;;;;;;20991541;28;20474;-70
2023/06/19 19:48:30;;;;;;;15.48;4.75;;;;;;;;;;20994788;28;20044;-71
2023/06/19 19:58:35;;;;;;;7.47;4.50;;;;;;;;;;20996522;28;20535;-70
2023/06/19 20:08:36;;;;;;;8.87;4.83;;;;;;;;;;21012191;28;20045;-70
2023/06/19 20:18:38;;;;;;;11.00;5.88;;;;;;;;;;21011875;28;20552;-70
2023/06/19 20:28:39;;;;;;;9.73;6.28;;;;;;;;;;21011974;28;20045;-69
2023/06/19 20:38:40;;;;;;;9.07;5.15;;;;;;;;;;21009563;28;20051;-70
2023/06/19 20:48:45;;;;;;;11.02;7.72;;;;;;;;;;21010868;28;20505;-70
2023/06/19 20:58:46;;;;;;;16.42;9.88;;;;;;;;;;21009312;28;20508;-69
2023/06/19 21:08:50;;;;;;;7.55;5.53;;;;;;;;;;21007415;28;20126;-69
2023/06/19 21:18:51;;;;;;;8.15;4.90;;;;;;;;;;21005276;28;20040;-70
2023/06/19 21:28:52;;;;;;;8.52;4.93;;;;;;;;;;21005951;28;20040;-69
2023/06/19 21:38:53;;;;;;;6.13;4.68;;;;;;;;;;21007463;28;20060;-68
2023/06/19 21:48:54;;;;;;;6.95;4.25;;;;;;;;;;21004956;28;20102;-69
2023/06/19 21:58:56;;;;;;;10.40;6.50;;;;;;;;;;21004661;28;20052;-69
2023/06/19 22:08:59;;;;;;;10.05;6.47;;;;;;;;;;21003928;28;20044;-69
2023/06/19 22:19:02;;;;;;;9.50;4.85;;;;;;;;;;21001822;28;20051;-69
2023/06/19 22:29:04;;;;;;;7.50;5.40;;;;;;;;;;21002274;28;20040;-70
2023/06/19 22:39:05;;;;;;;9.07;5.93;;;;;;;;;;21000014;28;20056;-70
2023/06/19 22:49:06;;;;;;;5.82;4.00;;;;;;;;;;20999636;28;20045;-69
2023/06/19 22:59:07;;;;;;;7.68;4.63;;;;;;;;;;20999799;28;20482;-69
2023/06/19 23:09:10;;;;;;;8.68;4.32;;;;;;;;;;20999681;28;20056;-69
2023/06/19 23:19:11;;;;;;;7.07;4.63;;;;;;;;;;20998934;28;20041;-69
2023/06/19 23:29:12;;;;;;;7.85;4.82;;;;;;;;;;20997199;28;20084;-69
2023/06/19 23:39:13;;;;;;;6.57;4.75;;;;;;;;;;20995986;28;20063;-69
2023/06/19 23:49:14;;;;;;;9.77;5.25;;;;;;;;;;20996180;28;20132;-69
2023/06/19 23:59:16;;;;;;;7.93;4.65;;;;;;;;;;20995900;28;20080;-69
